Time;durP1;ratioP1;P1;durP2;ratioP2;P2;SDS_P1;SDS_P2;PMS_P1;PMS_P2;Temp;Humidity;BMP_temperature;BMP_pressure;BME280_temperature;BME280_humidity;BME280_pressure;Samples;Min_cycle;Max_cycle;Signal;HPM_P1;HPM_P2
2022/06/27 00:01:02;;;;;;;26.38;14.73;;;;;;;17.99;78.94;101484.59;5009634;28;20026;-57
2022/06/27 00:03:27;;;;;;;27.52;15.65;;;;;;;17.97;78.56;101483.69;5010840;28;20058;-57
2022/06/27 00:05:52;;;;;;;27.55;15.45;;;;;;;17.97;78.98;101481.06;5008741;28;20113;-58
2022/06/27 00:08:18;;;;;;;28.63;16.27;;;;;;;17.95;79.06;101477.56;5007602;28;20018;-57
2022/06/27 00:10:43;;;;;;;32.67;16.48;;;;;;;17.93;78.92;101474.00;5009581;28;20058;-57
2022/06/27 00:13:09;;;;;;;28.95;15.30;;;;;;;17.90;79.02;101481.03;5007990;28;20105;-57
2022/06/27 00:15:34;;;;;;;26.58;15.35;;;;;;;17.92;79.16;101474.91;5006202;28;20025;-57
2022/06/27 00:17:59;;;;;;;30.95;17.25;;;;;;;17.92;79.12;101478.41;5005559;28;20064;-57
2022/06/27 00:20:25;;;;;;;26.88;15.80;;;;;;;17.90;78.89;101480.16;5006079;28;20029;-57
2022/06/27 00:22:51;;;;;;;32.08;16.42;;;;;;;17.89;79.05;101487.16;5008864;28;20040;-57
2022/06/27 00:25:16;;;;;;;29.30;16.52;;;;;;;17.88;79.00;101482.75;5010159;28;20492;-57
2022/06/27 00:27:42;;;;;;;29.83;16.45;;;;;;;17.88;78.71;101495.06;5010659;28;20026;-56
2022/06/27 00:30:08;;;;;;;28.33;16.25;;;;;;;17.87;78.99;101507.38;5009050;28;20307;-57
2022/06/27 00:32:33;;;;;;;28.85;16.35;;;;;;;17.84;79.90;101512.63;5006765;28;20053;-57
2022/06/27 00:34:59;;;;;;;27.30;15.48;;;;;;;17.84;79.65;101517.91;5006607;28;20033;-57
2022/06/27 00:37:24;;;;;;;31.42;17.15;;;;;;;17.82;80.17;101513.50;5010648;28;20635;-57
2022/06/27 00:39:50;;;;;;;30.40;16.58;;;;;;;17.81;80.03;101507.31;5007100;28;20112;-57
2022/06/27 00:42:15;;;;;;;31.48;17.92;;;;;;;17.75;80.21;101503.78;5006995;28;20030;-57
2022/06/27 00:44:43;;;;;;;32.08;18.02;;;;;;;17.74;79.74;101516.06;5008787;28;20034;-57
2022/06/27 00:47:11;;;;;;;29.58;16.58;;;;;;;17.75;79.88;101511.72;4998624;28;20021;-57
2022/06/27 00:49:37;;;;;;;29.50;17.50;;;;;;;17.74;80.26;101510.81;5007887;28;20036;-58
2022/06/27 00:52:05;;;;;;;33.42;17.52;;;;;;;17.74;80.65;101516.06;5006464;28;20442;-57
2022/06/27 00:54:31;;;;;;;31.88;17.40;;;;;;;17.75;80.43;101523.13;5007852;28;20033;-57
2022/06/27 00:56:57;;;;;;;31.48;18.27;;;;;;;17.72;80.54;101523.97;5009453;28;20084;-58
2022/06/27 00:59:22;;;;;;;30.70;18.25;;;;;;;17.72;80.38;101523.97;5009281;28;20033;-57
2022/06/27 01:01:48;;;;;;;30.48;17.73;;;;;;;17.71;80.81;101526.59;5010116;28;20056;-57
2022/06/27 01:04:14;;;;;;;32.72;18.45;;;;;;;17.71;80.40;101522.25;5012142;28;20499;-58
2022/06/27 01:06:40;;;;;;;31.65;17.50;;;;;;;17.70;80.26;101517.81;5013741;28;20104;-57
2022/06/27 01:09:05;;;;;;;34.00;18.92;;;;;;;17.69;80.20;101518.69;5012081;28;20109;-57
2022/06/27 01:11:31;;;;;;;32.42;18.35;;;;;;;17.67;80.09;101516.91;5005821;28;20100;-57
2022/06/27 01:13:57;;;;;;;33.42;18.20;;;;;;;17.66;80.10;101520.44;5006009;28;20026;-57
2022/06/27 01:16:23;;;;;;;32.45;17.58;;;;;;;17.66;80.13;101521.31;5004987;28;20018;-58
2022/06/27 01:18:48;;;;;;;30.20;16.80;;;;;;;17.66;79.68;101526.59;5006264;28;20410;-57
2022/06/27 01:21:21;;;;;;;30.38;17.77;;;;;;;17.66;80.42;101523.09;5008580;28;20034;-57
2022/06/27 01:23:47;;;;;;;31.35;17.10;;;;;;;17.66;80.12;101525.72;5007400;28;20033;-57
2022/06/27 01:26:12;;;;;;;31.88;17.67;;;;;;;17.63;80.81;101526.56;5001990;28;20524;-57
2022/06/27 01:28:38;;;;;;;29.15;17.13;;;;;;;17.63;80.58;101528.34;4997474;28;20025;-57
2022/06/27 01:31:03;;;;;;;32.97;17.00;;;;;;;17.64;80.77;101528.34;5006638;28;20040;-57
2022/06/27 01:33:29;;;;;;;31.65;17.52;;;;;;;17.62;80.58;101519.53;5006442;28;20084;-57
2022/06/27 01:36:41;;;;;;;31.48;17.55;;;;;;;17.62;80.64;101521.31;5003675;28;20107;-58
2022/06/27 01:38:39;;;;;;;29.23;16.48;;;;;;;17.60;80.40;101508.13;5004684;28;20042;-60
2022/06/27 01:41:05;;;;;;;28.17;16.45;;;;;;;17.61;80.79;101498.44;5007377;28;20037;-60
2022/06/27 01:43:30;;;;;;;29.20;16.88;;;;;;;17.61;80.86;101495.81;5006622;28;20032;-60
2022/06/27 01:45:55;;;;;;;32.58;17.13;;;;;;;17.59;81.27;101485.25;5007260;28;20037;-60
2022/06/27 01:48:21;;;;;;;28.65;16.35;;;;;;;17.57;80.44;101476.50;5006979;28;20104;-60
2022/06/27 01:50:50;;;;;;;31.42;17.73;;;;;;;17.55;81.05;101479.13;5007588;28;20034;-60
2022/06/27 01:53:17;;;;;;;30.83;17.88;;;;;;;17.58;81.13;101487.91;5011502;28;20544;-60
2022/06/27 01:55:42;;;;;;;30.25;16.48;;;;;;;17.58;80.98;101487.91;5008551;28;20207;-60
2022/06/27 01:58:07;;;;;;;32.50;18.13;;;;;;;17.59;80.89;101479.13;5010736;28;20558;-60
2022/06/27 02:00:33;;;;;;;30.27;16.90;;;;;;;17.56;81.33;101480.84;5009495;28;20025;-60
2022/06/27 02:02:59;;;;;;;30.07;17.70;;;;;;;17.56;81.09;101472.94;4968009;28;1086196;-60
2022/06/27 02:05:24;;;;;;;31.88;18.48;;;;;;;17.55;81.27;101465.94;5006322;28;20065;-60
2022/06/27 02:07:51;;;;;;;32.40;18.90;;;;;;;17.55;81.20;101472.94;5010321;28;20026;-57
2022/06/27 02:10:16;;;;;;;31.98;18.52;;;;;;;17.55;80.96;101478.22;5009863;28;20029;-57
2022/06/27 02:12:42;;;;;;;35.58;18.88;;;;;;;17.54;82.05;101469.44;5012610;28;20033;-57
2022/06/27 02:15:09;;;;;;;36.40;19.63;;;;;;;17.54;81.70;101476.47;5011711;28;20366;-57
2022/06/27 02:17:35;;;;;;;35.17;18.80;;;;;;;17.52;81.68;101473.84;5011427;28;20030;-57
2022/06/27 02:20:01;;;;;;;33.80;20.05;;;;;;;17.50;81.58;101459.75;5012471;28;20030;-57
2022/06/27 02:22:28;;;;;;;35.35;19.45;;;;;;;17.48;81.81;101457.97;5010344;28;20045;-57
2022/06/27 02:24:54;;;;;;;38.05;20.00;;;;;;;17.46;81.58;101451.84;5009982;28;20037;-57
2022/06/27 02:27:20;;;;;;;38.33;19.40;;;;;;;17.45;81.67;101450.97;5013543;28;20081;-57
2022/06/27 02:29:46;;;;;;;36.33;19.35;;;;;;;17.44;81.31;101443.94;5012409;28;20029;-57
2022/06/27 02:32:11;;;;;;;37.08;19.65;;;;;;;17.44;81.97;101449.19;5010746;28;20504;-57
2022/06/27 02:34:37;;;;;;;42.10;20.75;;;;;;;17.44;81.34;101450.94;5008404;28;20029;-57
2022/06/27 02:37:03;;;;;;;37.13;19.20;;;;;;;17.43;81.45;101446.56;5010861;28;20042;-60
2022/06/27 02:39:32;;;;;;;34.30;19.35;;;;;;;17.42;81.24;101444.78;5010980;28;20037;-60
2022/06/27 02:41:58;;;;;;;35.13;19.80;;;;;;;17.42;81.90;101448.28;5011199;28;20033;-60
2022/06/27 02:44:26;;;;;;;36.55;19.92;;;;;;;17.40;82.44;101446.53;5016637;28;20481;-60
2022/06/27 02:46:52;;;;;;;33.83;18.55;;;;;;;17.42;82.41;101444.78;5014462;28;20042;-60
2022/06/27 02:49:18;;;;;;;32.30;18.35;;;;;;;17.41;82.36;101438.66;5010325;28;20109;-60
2022/06/27 02:51:47;;;;;;;37.13;19.70;;;;;;;17.42;81.48;101421.94;5011789;28;20033;-60
2022/06/27 02:54:20;;;;;;;37.70;19.05;;;;;;;17.43;81.22;101421.06;5008856;28;20041;-60
2022/06/27 02:57:07;;;;;;;33.38;18.33;;;;;;;17.42;81.33;101421.06;5011186;28;20029;-60
2022/06/27 02:59:37;;;;;;;38.95;20.08;;;;;;;17.41;81.25;101420.19;5010979;28;20537;-60
2022/06/27 03:02:08;;;;;;;34.10;18.40;;;;;;;17.39;81.20;101408.75;5009621;28;20036;-60
2022/06/27 03:04:33;;;;;;;37.70;20.60;;;;;;;17.37;80.90;101405.25;5000896;28;20046;-60
2022/06/27 03:06:58;;;;;;;38.10;19.65;;;;;;;17.35;80.85;101402.63;5010515;28;20064;-60
2022/06/27 03:09:24;;;;;;;36.75;20.95;;;;;;;17.32;80.71;101407.88;5011459;28;20105;-60
2022/06/27 03:11:49;;;;;;;40.80;22.05;;;;;;;17.30;81.12;101414.00;5010649;28;20068;-60
2022/06/27 03:14:15;;;;;;;38.28;20.48;;;;;;;17.28;80.83;101405.19;5011026;28;20021;-60
2022/06/27 03:16:40;;;;;;;40.70;21.10;;;;;;;17.26;80.74;101396.41;5011081;28;20104;-60
2022/06/27 03:19:06;;;;;;;40.17;21.08;;;;;;;17.21;80.69;101401.66;5010526;28;20417;-60
2022/06/27 03:21:32;;;;;;;38.53;21.30;;;;;;;17.17;80.33;101402.50;5010400;28;20506;-60
2022/06/27 03:23:57;;;;;;;36.35;19.77;;;;;;;17.17;80.57;101406.03;5012648;28;20026;-60
2022/06/27 03:26:23;;;;;;;33.15;19.23;;;;;;;17.14;80.33;101410.41;5006666;28;20021;-59
2022/06/27 03:28:48;;;;;;;36.03;18.88;;;;;;;17.08;80.03;101403.34;5008296;28;20072;-60
2022/06/27 03:31:15;;;;;;;32.47;18.40;;;;;;;17.07;80.06;101413.88;5009261;28;20030;-61
2022/06/27 03:33:41;;;;;;;36.45;20.17;;;;;;;17.04;80.52;101410.34;5010184;28;20029;-60
2022/06/27 03:36:07;;;;;;;36.30;18.60;;;;;;;17.02;80.53;101403.31;5009753;28;20063;-60
2022/06/27 03:38:33;;;;;;;36.65;18.80;;;;;;;16.97;80.08;101403.25;5007586;28;20065;-60
2022/06/27 03:40:58;;;;;;;38.00;19.20;;;;;;;16.95;80.27;101402.38;5009723;28;20061;-61
2022/06/27 03:43:24;;;;;;;36.03;19.35;;;;;;;16.92;80.34;101401.50;5004533;28;20034;-60
2022/06/27 03:45:49;;;;;;;37.08;18.95;;;;;;;16.89;80.31;101399.72;5009504;28;20030;-61
2022/06/27 03:49:59;;;;;;;36.70;19.40;;;;;;;16.88;80.27;101407.63;5010011;28;20072;-60
2022/06/27 03:51:00;;;;;;;37.83;18.90;;;;;;;16.85;79.84;101401.41;5009200;28;20050;-60
2022/06/27 03:53:26;;;;;;;34.67;18.70;;;;;;;16.83;79.90;101412.81;5011983;28;20037;-60
2022/06/27 03:55:51;;;;;;;39.70;20.08;;;;;;;16.79;80.10;101411.03;5009616;28;20428;-60
2022/06/27 03:58:16;;;;;;;40.00;20.20;;;;;;;16.77;80.26;101413.66;5010629;28;20044;-60
2022/06/27 04:00:42;;;;;;;36.22;21.05;;;;;;;16.76;80.44;101414.53;5008745;28;20024;-60
2022/06/27 04:03:07;;;;;;;41.38;21.90;;;;;;;16.76;80.75;101422.41;5005738;28;20049;-60
2022/06/27 04:05:33;;;;;;;36.65;20.27;;;;;;;16.75;80.48;101431.16;5009174;28;20477;-60
2022/06/27 04:07:58;;;;;;;39.00;19.27;;;;;;;16.74;80.56;101434.66;5005562;28;20033;-57
2022/06/27 04:10:23;;;;;;;33.20;18.88;;;;;;;16.74;80.57;101429.41;5010224;28;20025;-57
2022/06/27 04:12:49;;;;;;;38.45;19.75;;;;;;;16.72;80.67;101420.63;5011221;28;20083;-58
2022/06/27 04:15:14;;;;;;;36.78;18.92;;;;;;;16.73;80.76;101419.75;5008240;28;20460;-58
2022/06/27 04:17:39;;;;;;;36.47;19.77;;;;;;;16.73;81.44;101422.41;5007846;28;20034;-57
2022/06/27 04:20:05;;;;;;;36.38;19.95;;;;;;;16.72;81.55;101423.25;5008284;28;20057;-58
2022/06/27 04:22:31;;;;;;;36.92;19.70;;;;;;;16.71;81.67;101412.72;4999989;28;20029;-57
2022/06/27 04:24:58;;;;;;;41.17;20.65;;;;;;;16.72;81.99;101406.59;5011143;28;20377;-57
2022/06/27 04:27:23;;;;;;;37.83;20.60;;;;;;;16.71;82.67;101394.31;5009845;28;20061;-58
2022/06/27 04:29:48;;;;;;;44.03;23.42;;;;;;;16.71;82.99;101395.16;5007313;28;20026;-58
2022/06/27 04:32:16;;;;;;;46.78;23.88;;;;;;;16.73;82.86;101395.19;5008872;28;20052;-57
2022/06/27 04:34:41;;;;;;;42.78;24.02;;;;;;;16.73;83.57;101387.28;5018060;28;20056;-57
2022/06/27 04:37:07;;;;;;;42.25;24.50;;;;;;;16.72;84.21;101375.03;5012238;28;20466;-58
2022/06/27 04:39:33;;;;;;;46.70;24.48;;;;;;;16.73;84.35;101367.13;5010102;28;20042;-58
2022/06/27 04:41:58;;;;;;;51.85;26.67;;;;;;;16.74;84.77;101355.72;5010893;28;20036;-57
2022/06/27 04:44:23;;;;;;;46.63;25.58;;;;;;;16.73;84.51;101356.59;5011061;28;20026;-58
2022/06/27 04:46:49;;;;;;;54.70;27.42;;;;;;;16.76;84.59;101358.38;5008049;28;20053;-58
2022/06/27 04:49:17;;;;;;;46.20;25.73;;;;;;;16.77;84.72;101360.13;5010939;28;20095;-58
2022/06/27 04:51:43;;;;;;;48.33;26.65;;;;;;;16.79;84.69;101361.03;5016591;28;20469;-57
2022/06/27 04:54:10;;;;;;;49.35;26.65;;;;;;;16.80;85.19;101371.56;5012540;28;20025;-58
2022/06/27 04:56:41;;;;;;;49.33;27.35;;;;;;;16.81;85.19;101378.56;5007294;28;20026;-57
2022/06/27 04:59:06;;;;;;;53.00;27.67;;;;;;;16.82;86.03;101385.59;5006633;28;20034;-58
2022/06/27 05:01:32;;;;;;;49.60;27.70;;;;;;;16.83;85.97;101386.50;5004284;28;20517;-58
2022/06/27 05:03:57;;;;;;;48.00;27.58;;;;;;;16.86;85.60;101379.50;5002852;28;20140;-58
2022/06/27 05:06:22;;;;;;;52.05;28.63;;;;;;;16.88;85.76;101376.91;5014852;28;20454;-60
2022/06/27 05:08:48;;;;;;;49.63;27.35;;;;;;;16.90;85.71;101371.66;5002909;28;20044;-60
2022/06/27 05:11:13;;;;;;;53.35;27.52;;;;;;;16.91;85.16;101361.13;5002265;28;20036;-61
2022/06/27 05:13:39;;;;;;;52.95;28.10;;;;;;;16.91;85.11;101353.22;5002572;28;20186;-60
2022/06/27 05:16:04;;;;;;;45.55;26.02;;;;;;;16.93;84.83;101350.59;5001975;28;20448;-61
2022/06/27 05:18:29;;;;;;;47.80;25.95;;;;;;;16.94;84.76;101345.34;5005064;28;20440;-59
2022/06/27 05:20:55;;;;;;;47.55;27.00;;;;;;;16.93;85.44;101354.13;5002844;28;20440;-61
2022/06/27 05:23:21;;;;;;;50.70;27.85;;;;;;;16.94;84.93;101363.75;5007583;28;20056;-59
2022/06/27 05:25:46;;;;;;;47.13;26.88;;;;;;;16.95;85.37;101378.69;5010353;28;20025;-59
2022/06/27 05:28:12;;;;;;;50.80;26.77;;;;;;;16.96;85.16;101376.94;5002054;28;20428;-59
2022/06/27 05:30:37;;;;;;;49.90;27.33;;;;;;;16.96;85.25;101372.56;5013021;28;20053;-61
2022/06/27 05:33:02;;;;;;;47.55;26.73;;;;;;;16.97;85.29;101368.19;5012206;28;20034;-59
2022/06/27 05:35:28;;;;;;;54.20;28.27;;;;;;;16.97;85.02;101382.22;5010335;28;20021;-59
2022/06/27 05:37:54;;;;;;;47.10;25.80;;;;;;;16.97;86.11;101405.03;5008310;28;20034;-56
2022/06/27 05:40:20;;;;;;;47.80;25.80;;;;;;;16.99;85.43;101437.53;5009482;28;20473;-57
2022/06/27 05:42:47;;;;;;;53.53;27.60;;;;;;;16.97;85.16;101452.41;5008159;28;20084;-57
2022/06/27 05:45:13;;;;;;;54.85;28.10;;;;;;;16.99;85.52;101461.22;5008558;28;20018;-57
2022/06/27 05:47:40;;;;;;;53.55;28.02;;;;;;;16.99;84.97;101466.50;5001804;28;20021;-57
2022/06/27 05:50:06;;;;;;;56.55;29.58;;;;;;;16.99;85.27;101471.75;5009232;28;20535;-57
2022/06/27 05:52:32;;;;;;;54.40;29.48;;;;;;;17.00;85.10;101479.66;5009949;28;20025;-56
2022/06/27 05:54:59;;;;;;;55.35;29.90;;;;;;;17.02;85.38;101490.22;5008465;28;20026;-57
2022/06/27 05:57:25;;;;;;;57.72;32.45;;;;;;;17.04;85.46;101501.63;5009119;28;20034;-57
2022/06/27 05:59:53;;;;;;;58.78;34.50;;;;;;;17.03;84.94;101492.84;5010086;28;20025;-57
2022/06/27 06:02:20;;;;;;;57.90;33.97;;;;;;;17.04;85.26;101494.59;5008182;28;20061;-57
2022/06/27 06:04:46;;;;;;;62.20;34.13;;;;;;;17.06;84.76;101489.38;5009203;28;20139;-57
2022/06/27 06:07:12;;;;;;;60.95;33.33;;;;;;;17.08;85.95;101492.88;5002998;28;20397;-57
2022/06/27 06:09:38;;;;;;;61.33;34.15;;;;;;;17.09;85.92;101477.94;5008590;28;20105;-57
2022/06/27 06:12:03;;;;;;;58.95;33.53;;;;;;;17.08;84.92;101468.31;5010055;28;20530;-57
2022/06/27 06:14:29;;;;;;;56.35;31.08;;;;;;;17.09;85.14;101462.16;5008935;28;20113;-57
2022/06/27 06:16:54;;;;;;;59.58;32.80;;;;;;;17.12;85.19;101473.59;5009365;28;20018;-57
2022/06/27 06:19:20;;;;;;;56.65;33.72;;;;;;;17.13;85.67;101471.84;5008684;28;20057;-57
2022/06/27 06:21:46;;;;;;;62.05;33.35;;;;;;;17.16;85.13;101477.13;5010286;28;20045;-57
2022/06/27 06:24:11;;;;;;;57.15;31.95;;;;;;;17.16;84.75;101483.28;5009777;28;20026;-57
2022/06/27 06:26:37;;;;;;;64.60;32.85;;;;;;;17.17;84.79;101492.06;5008319;28;20436;-57
2022/06/27 06:29:12;;;;;;;57.42;32.55;;;;;;;17.20;84.92;101505.25;5009325;28;20117;-57
2022/06/27 06:31:40;;;;;;;60.03;32.15;;;;;;;17.20;84.17;101506.09;5009899;28;20477;-57
2022/06/27 06:34:07;;;;;;;51.67;32.70;;;;;;;17.21;84.58;101505.25;5008530;28;20124;-57
2022/06/27 06:36:33;;;;;;;62.00;32.83;;;;;;;17.22;85.20;101498.25;5009672;28;20401;-57
2022/06/27 06:39:00;;;;;;;63.35;36.03;;;;;;;17.23;84.79;101493.84;5007683;28;20030;-57
2022/06/27 06:41:25;;;;;;;61.88;35.53;;;;;;;17.22;85.19;101495.63;4999155;28;20046;-57
2022/06/27 06:43:50;;;;;;;62.50;35.47;;;;;;;17.24;84.96;101482.44;5013211;28;20033;-57
2022/06/27 06:46:16;;;;;;;61.35;35.95;;;;;;;17.25;85.10;101474.56;5012984;28;20555;-57
2022/06/27 06:48:41;;;;;;;66.93;36.88;;;;;;;17.25;85.79;101453.50;5012112;28;20485;-57
2022/06/27 06:51:07;;;;;;;65.95;36.83;;;;;;;17.26;86.31;101438.56;5012429;28;20037;-57
2022/06/27 06:53:35;;;;;;;66.38;37.17;;;;;;;17.27;86.73;101437.69;5012199;28;20109;-57
2022/06/27 06:56:01;;;;;;;68.90;38.70;;;;;;;17.27;86.00;101432.41;5012970;28;20132;-58
2022/06/27 06:58:27;;;;;;;67.57;38.15;;;;;;;17.28;86.17;101426.25;5012358;28;20040;-57
2022/06/27 07:00:54;;;;;;;67.32;37.30;;;;;;;17.30;85.64;101416.63;5012907;28;20030;-58
2022/06/27 07:03:20;;;;;;;65.97;36.75;;;;;;;17.32;85.37;101428.03;5011906;28;20060;-57
2022/06/27 07:05:46;;;;;;;73.72;41.15;;;;;;;17.35;84.86;101438.59;5012578;28;20033;-58
2022/06/27 07:08:12;;;;;;;76.05;41.22;;;;;;;17.36;84.68;101446.50;5012052;28;20036;-58
2022/06/27 07:10:39;;;;;;;80.32;41.20;;;;;;;17.36;84.97;101437.72;5010570;28;20034;-58
2022/06/27 07:13:04;;;;;;;74.47;41.10;;;;;;;17.38;84.12;101428.09;5012200;28;20017;-57
2022/06/27 07:15:30;;;;;;;69.55;40.55;;;;;;;17.38;84.44;101415.78;5012659;28;20048;-57
2022/06/27 07:17:56;;;;;;;70.45;39.60;;;;;;;17.41;83.99;101422.84;5012439;28;20026;-57
2022/06/27 07:20:22;;;;;;;67.45;38.25;;;;;;;17.42;83.99;101447.41;5010562;28;20033;-57
2022/06/27 07:22:49;;;;;;;68.28;38.53;;;;;;;17.44;83.41;101458.81;5012771;28;20038;-57
2022/06/27 07:25:15;;;;;;;70.10;40.05;;;;;;;17.45;84.84;101461.50;5012494;28;20030;-57
2022/06/27 07:27:42;;;;;;;76.25;41.28;;;;;;;17.49;84.21;101476.44;5011730;28;20105;-57
2022/06/27 07:30:11;;;;;;;73.13;41.53;;;;;;;17.51;85.01;101482.59;5011594;28;20118;-57
2022/06/27 07:32:41;;;;;;;80.80;48.67;;;;;;;17.56;84.99;101482.63;5012383;28;20072;-57
2022/06/27 07:35:11;;;;;;;81.78;47.05;;;;;;;17.59;84.92;101480.00;5011560;28;20077;-57
2022/06/27 07:37:40;;;;;;;77.88;47.95;;;;;;;17.62;84.93;101473.88;5011753;28;20108;-57
2022/06/27 07:40:06;;;;;;;79.90;42.67;;;;;;;17.67;84.75;101461.56;5010058;28;20095;-57
2022/06/27 07:42:31;;;;;;;64.90;36.33;;;;;;;17.69;82.85;101470.38;5012125;28;20038;-58
2022/06/27 07:44:57;;;;;;;66.30;36.80;;;;;;;17.71;83.15;101493.25;5012109;28;20064;-58
2022/06/27 07:47:22;;;;;;;63.72;35.45;;;;;;;17.76;83.70;101473.94;5011238;28;20457;-57
2022/06/27 07:49:48;;;;;;;60.70;34.30;;;;;;;17.80;83.35;101471.31;5011319;28;20029;-58
2022/06/27 07:52:13;;;;;;;65.57;34.28;;;;;;;17.84;83.72;101482.72;5011081;28;20037;-57
2022/06/27 07:54:38;;;;;;;57.75;31.85;;;;;;;17.88;83.41;101500.31;5010403;28;20557;-57
2022/06/27 07:57:05;;;;;;;60.30;32.17;;;;;;;17.89;82.41;101504.75;5010813;28;20549;-57
2022/06/27 07:59:30;;;;;;;57.35;31.08;;;;;;;17.91;82.56;101497.72;5010693;28;20029;-57
2022/06/27 08:01:56;;;;;;;63.60;31.80;;;;;;;17.92;82.25;101502.16;5008187;28;20030;-58
2022/06/27 08:04:22;;;;;;;53.70;29.90;;;;;;;17.96;82.24;101505.66;5000993;28;20046;-58
2022/06/27 08:06:49;;;;;;;55.20;28.20;;;;;;;17.97;81.82;101512.69;5008955;28;20108;-60
2022/06/27 08:09:15;;;;;;;52.78;28.23;;;;;;;17.99;82.26;101503.06;5011133;28;20018;-60
2022/06/27 08:11:42;;;;;;;54.40;28.50;;;;;;;18.01;81.33;101502.16;5009858;28;20029;-60
2022/06/27 08:14:11;;;;;;;59.38;28.48;;;;;;;18.04;81.73;101511.84;5010879;28;20025;-60
2022/06/27 08:16:41;;;;;;;49.38;27.60;;;;;;;18.07;81.72;101507.47;5010950;28;20109;-60
2022/06/27 08:19:08;;;;;;;50.70;27.48;;;;;;;18.13;82.32;101501.31;5011368;28;20061;-60
2022/06/27 08:21:35;;;;;;;52.33;26.13;;;;;;;18.15;81.83;101501.34;5010266;28;20034;-60
2022/06/27 08:24:04;;;;;;;45.17;24.27;;;;;;;18.17;81.16;101511.00;5012634;28;20053;-60
2022/06/27 08:26:31;;;;;;;46.58;24.75;;;;;;;18.18;79.98;101506.63;5020064;28;20105;-60
2022/06/27 08:29:02;;;;;;;45.83;24.52;;;;;;;18.18;80.13;101512.78;5010142;28;20026;-60
2022/06/27 08:31:29;;;;;;;47.60;24.48;;;;;;;18.20;80.34;101529.47;5014541;28;20021;-60
2022/06/27 08:34:01;;;;;;;51.92;24.52;;;;;;;18.22;80.29;101534.78;5008765;28;20114;-60
2022/06/27 08:36:30;;;;;;;46.28;24.42;;;;;;;18.23;80.54;101537.41;5010605;28;20520;-60
2022/06/27 08:38:57;;;;;;;47.30;24.33;;;;;;;18.25;80.85;101540.06;5009961;28;20042;-60
2022/06/27 08:41:23;;;;;;;44.97;24.67;;;;;;;18.27;80.87;101537.44;5006395;28;20033;-60
2022/06/27 08:43:54;;;;;;;51.70;25.48;;;;;;;18.29;82.04;101535.66;5009516;28;20020;-60
2022/06/27 08:46:20;;;;;;;47.50;24.70;;;;;;;18.29;80.20;101533.88;5009374;28;20018;-60
2022/06/27 08:48:47;;;;;;;51.65;25.23;;;;;;;18.31;81.76;101540.06;5008176;28;20540;-60
2022/06/27 08:51:13;;;;;;;46.92;24.73;;;;;;;18.31;82.32;101533.91;5009513;28;20029;-60
2022/06/27 08:53:39;;;;;;;47.50;25.52;;;;;;;18.33;82.38;101533.03;5008048;28;20487;-60
2022/06/27 08:56:09;;;;;;;47.38;24.05;;;;;;;18.35;82.44;101535.66;5010297;28;20072;-60
2022/06/27 08:58:35;;;;;;;54.58;25.83;;;;;;;18.37;81.69;101536.56;5013774;28;20025;-60
2022/06/27 09:01:01;;;;;;;49.25;25.58;;;;;;;18.38;81.54;101533.94;5014202;28;20040;-61
2022/06/27 09:03:26;;;;;;;50.20;25.95;;;;;;;18.39;81.43;101540.97;5018334;28;20045;-60
2022/06/27 09:06:00;;;;;;;44.28;23.52;;;;;;;18.41;80.78;101562.97;5009495;28;20022;-60
2022/06/27 09:08:31;;;;;;;45.40;24.38;;;;;;;18.45;80.80;101573.53;5007845;28;20026;-60
2022/06/27 09:10:57;;;;;;;48.67;24.58;;;;;;;18.47;80.14;101562.09;5011211;28;20041;-61
2022/06/27 09:13:23;;;;;;;49.20;23.70;;;;;;;18.48;79.33;101558.59;5010093;28;20083;-60
2022/06/27 09:15:52;;;;;;;45.67;23.65;;;;;;;18.50;79.80;101558.59;5009228;28;20029;-60
2022/06/27 09:18:25;;;;;;;47.75;22.88;;;;;;;18.54;78.64;101545.41;5008285;28;20054;-61
2022/06/27 09:20:58;;;;;;;40.38;19.83;;;;;;;18.57;78.95;101542.75;5009459;28;20085;-60
2022/06/27 09:23:41;;;;;;;43.03;23.00;;;;;;;18.63;79.34;101535.75;5011359;28;20295;-60
2022/06/27 09:26:09;;;;;;;42.97;23.05;;;;;;;18.65;77.75;101533.97;5011229;28;20033;-60
2022/06/27 09:28:53;;;;;;;45.15;21.88;;;;;;;18.69;78.98;101546.31;5010453;28;20022;-60
2022/06/27 09:31:30;;;;;;;50.13;25.10;;;;;;;18.72;78.62;101552.44;5009516;28;20061;-60
2022/06/27 09:34:03;;;;;;;47.25;25.00;;;;;;;18.74;78.96;101555.09;5009460;28;20079;-60
2022/06/27 09:36:31;;;;;;;41.47;21.27;;;;;;;18.75;77.76;101555.09;5002621;28;20447;-60
2022/06/27 09:38:59;;;;;;;40.97;21.60;;;;;;;18.79;78.13;101552.47;5009476;28;20579;-60
2022/06/27 09:41:29;;;;;;;36.65;19.95;;;;;;;18.82;76.95;101542.78;5009669;28;20057;-60
2022/06/27 09:44:01;;;;;;;30.42;17.13;;;;;;;18.84;76.27;101551.59;5009012;28;20333;-60
2022/06/27 09:46:35;;;;;;;33.63;16.55;;;;;;;18.87;75.75;101546.34;5008521;28;20061;-60
2022/06/27 09:49:01;;;;;;;31.15;16.67;;;;;;;18.87;75.63;101541.06;5007734;28;20060;-60
2022/06/27 09:51:27;;;;;;;29.95;15.57;;;;;;;18.91;73.75;101550.72;5013885;28;20061;-61
2022/06/27 09:53:58;;;;;;;31.15;14.73;;;;;;;18.94;74.01;101547.22;5009651;28;20026;-61
2022/06/27 09:56:25;;;;;;;25.02;13.43;;;;;;;18.98;73.10;101542.84;5001391;28;20044;-61
2022/06/27 09:58:50;;;;;;;25.55;12.63;;;;;;;19.01;74.26;101548.13;5022135;28;20144;-61
2022/06/27 10:01:18;;;;;;;19.23;10.43;;;;;;;19.02;71.11;101545.47;5008285;28;20525;-61
2022/06/27 10:03:43;;;;;;;21.13;11.57;;;;;;;19.04;72.21;101540.19;5009050;28;20048;-61
2022/06/27 10:06:10;;;;;;;21.48;12.18;;;;;;;19.07;72.02;101529.63;5007789;28;20026;-61
2022/06/27 10:08:36;;;;;;;27.60;13.88;;;;;;;19.11;73.66;101534.88;5008508;28;20021;-60
2022/06/27 10:11:02;;;;;;;22.98;13.80;;;;;;;19.15;73.90;101522.56;5009255;28;20030;-60
2022/06/27 10:13:28;;;;;;;28.00;13.38;;;;;;;19.20;74.15;101527.84;5009931;28;20025;-60
2022/06/27 10:15:57;;;;;;;24.58;12.45;;;;;;;19.24;73.38;101525.19;5008334;28;20117;-60
2022/06/27 10:18:23;;;;;;;24.92;14.63;;;;;;;19.28;72.31;101521.66;5011840;28;20056;-61
2022/06/27 10:20:51;;;;;;;29.17;14.60;;;;;;;19.32;72.62;101524.28;5013099;28;20397;-60
2022/06/27 10:23:41;;;;;;;32.30;16.02;;;;;;;19.37;72.41;101522.53;5013408;28;20033;-60
2022/06/27 10:26:02;;;;;;;31.40;15.52;;;;;;;19.42;71.77;101523.41;5011701;28;20245;-59
2022/06/27 10:28:27;;;;;;;24.55;14.60;;;;;;;19.50;72.23;101526.91;5012354;28;20169;-59
2022/06/27 10:30:55;;;;;;;27.10;15.52;;;;;;;19.53;71.28;101518.97;5013147;28;20029;-59
2022/06/27 10:33:20;;;;;;;25.95;14.77;;;;;;;19.55;71.53;101513.66;5012948;28;20080;-60
2022/06/27 10:35:59;;;;;;;27.63;15.13;;;;;;;19.58;71.71;101525.13;5011847;28;20440;-59
2022/06/27 10:38:39;;;;;;;25.17;14.53;;;;;;;19.61;72.51;101525.13;5013083;28;20292;-61
2022/06/27 10:41:07;;;;;;;23.73;13.15;;;;;;;19.63;72.55;101528.63;5011921;28;20018;-61
2022/06/27 10:43:35;;;;;;;23.17;11.57;;;;;;;19.65;73.19;101525.97;5013136;28;20028;-61
2022/06/27 10:46:00;;;;;;;27.10;14.48;;;;;;;19.66;71.42;101527.75;5011520;28;20546;-61
2022/06/27 10:48:35;;;;;;;25.35;14.25;;;;;;;19.68;70.93;101536.53;5011010;28;20057;-61
2022/06/27 10:51:19;;;;;;;25.83;13.30;;;;;;;19.69;71.39;101533.00;5016243;28;20106;-61
2022/06/27 10:53:49;;;;;;;21.92;13.10;;;;;;;19.71;72.59;101535.66;5018677;28;20030;-61
2022/06/27 10:56:26;;;;;;;28.75;13.68;;;;;;;19.74;72.62;101530.34;5010846;28;20026;-60
2022/06/27 10:58:51;;;;;;;25.58;13.30;;;;;;;19.74;71.73;101530.34;5001039;28;20080;-61
2022/06/27 11:01:18;;;;;;;21.48;12.63;;;;;;;19.76;72.37;101534.75;5012231;28;20018;-60
2022/06/27 11:03:44;;;;;;;22.85;12.02;;;;;;;19.74;72.30;101538.28;5009490;28;20073;-61
2022/06/27 11:06:13;;;;;;;28.33;13.88;;;;;;;19.75;73.02;101542.69;5012798;28;20107;-61
2022/06/27 11:08:40;;;;;;;24.13;13.80;;;;;;;19.77;75.46;101538.31;5012615;28;20026;-61